Terminal Aerodrome Forecast
Issued by NWS

Home | Current Version | Previous Version | Text Only | Print | Product List | Glossary Off
Versions: 1 2 3 4 5 6 7 8 9 10 11 12 13 14 15 16 17 18

196
FTUS43 KABR 230913 AAC
TAFMBG
TAF AMD
KMBG 230913Z 2309/2406 14007KT P6SM VCTS OVC080CB
     FM231100 05007KT P6SM BKN100
     FM231500 12015KT P6SM BKN150=

USA.gov is the U.S. government's official web portal to all federal, state and local government web resources and services.